createdAt,value
2022-12-11T00:00:56.685Z,2.37
2022-12-11T00:03:24.443Z,2.59
2022-12-11T00:05:52.158Z,2.76
2022-12-11T00:08:19.869Z,2.85
2022-12-11T00:10:49.521Z,2.93
2022-12-11T00:13:17.237Z,2.98
2022-12-11T00:15:46.350Z,2.97
2022-12-11T00:18:14.761Z,2.99
2022-12-11T00:20:42.546Z,2.99
2022-12-11T00:23:10.915Z,2.89
2022-12-11T00:25:43.934Z,2.75
2022-12-11T00:28:11.710Z,2.79
2022-12-11T00:30:41.187Z,2.80
2022-12-11T00:33:11.043Z,2.82
2022-12-11T00:35:40.023Z,2.88
2022-12-11T00:38:07.744Z,2.90
2022-12-11T00:40:35.585Z,2.93
2022-12-11T00:43:03.358Z,2.97
2022-12-11T00:45:31.137Z,2.86
2022-12-11T00:47:58.912Z,2.70
2022-12-11T00:50:28.022Z,2.78
2022-12-11T00:52:58.166Z,2.72
2022-12-11T00:55:28.062Z,2.60
2022-12-11T00:57:56.556Z,2.57
2022-12-11T01:00:24.318Z,2.56
2022-12-11T01:02:52.226Z,2.47
2022-12-11T01:05:20.092Z,2.44
2022-12-11T01:07:49.270Z,2.36
2022-12-11T01:10:25.410Z,2.43
2022-12-11T01:12:54.811Z,2.75
2022-12-11T01:15:23.810Z,2.93
2022-12-11T01:17:52.110Z,3.04
2022-12-11T01:20:21.012Z,3.02
2022-12-11T01:22:52.849Z,2.79
2022-12-11T01:25:20.818Z,2.74
2022-12-11T01:27:50.961Z,2.66
2022-12-11T01:30:19.914Z,2.69
2022-12-11T01:32:47.990Z,2.72
2022-12-11T01:35:16.089Z,2.64
2022-12-11T01:37:44.060Z,2.62
2022-12-11T01:40:15.854Z,2.82
2022-12-11T01:42:43.852Z,2.82
2022-12-11T01:45:27.267Z,2.76
2022-12-11T01:47:58.884Z,2.65
2022-12-11T01:50:27.146Z,2.55
2022-12-11T01:52:54.941Z,2.47
2022-12-11T01:55:24.748Z,2.55
2022-12-11T01:57:54.462Z,2.70
2022-12-11T02:00:23.030Z,2.71
2022-12-11T02:02:52.967Z,2.46
2022-12-11T02:05:21.973Z,2.47
2022-12-11T02:07:55.080Z,2.42
2022-12-11T02:10:29.231Z,2.55
2022-12-11T02:13:02.622Z,2.62
2022-12-11T02:15:37.196Z,2.39
2022-12-11T02:18:16.079Z,2.24
2022-12-11T02:20:49.462Z,2.20
2022-12-11T02:23:35.189Z,2.18
2022-12-11T02:26:21.740Z,2.29
2022-12-11T02:28:55.763Z,2.39
2022-12-11T02:31:28.500Z,2.30
2022-12-11T02:34:02.351Z,2.19
2022-12-11T02:36:34.877Z,2.10
2022-12-11T02:39:04.545Z,2.05
2022-12-11T02:41:34.653Z,1.95
2022-12-11T02:44:05.219Z,2.17
2022-12-11T02:46:35.991Z,2.19
2022-12-11T02:49:06.812Z,2.18
2022-12-11T02:51:37.604Z,2.24
2022-12-11T02:54:08.720Z,2.36
2022-12-11T02:56:43.141Z,2.61
2022-12-11T02:59:17.124Z,2.51
2022-12-11T03:01:45.133Z,2.67
2022-12-11T03:04:13.008Z,2.76
2022-12-11T03:06:45.057Z,2.89
2022-12-11T03:09:12.770Z,2.98
2022-12-11T03:11:40.546Z,3.03
2022-12-11T03:14:09.277Z,3.03
2022-12-11T03:16:40.333Z,3.09
2022-12-11T03:19:15.464Z,3.14
2022-12-11T03:21:51.359Z,3.20
2022-12-11T03:24:23.468Z,3.17
2022-12-11T03:26:57.271Z,3.14
2022-12-11T03:29:31.459Z,2.96
2022-12-11T03:32:08.173Z,2.88
2022-12-11T03:34:43.350Z,2.82
2022-12-11T03:37:12.804Z,2.67
2022-12-11T03:39:44.632Z,2.76
2022-12-11T03:42:15.400Z,2.84
2022-12-11T03:44:48.057Z,2.82
2022-12-11T03:47:20.968Z,2.64
2022-12-11T03:49:50.708Z,2.49
2022-12-11T03:52:19.482Z,2.47
2022-12-11T03:54:50.730Z,2.54
2022-12-11T03:57:22.561Z,2.47
2022-12-11T03:59:51.481Z,2.21
2022-12-11T04:02:20.538Z,2.08
2022-12-11T04:04:48.270Z,2.06
2022-12-11T04:07:16.047Z,2.08
2022-12-11T04:09:43.731Z,2.13
2022-12-11T04:12:11.446Z,2.18
2022-12-11T04:15:00.488Z,2.27
2022-12-11T04:17:47.572Z,2.26
2022-12-11T04:20:32.963Z,2.25
2022-12-11T04:23:14.838Z,2.20
2022-12-11T04:25:42.604Z,2.30
2022-12-11T04:28:10.332Z,2.40
2022-12-11T04:30:37.995Z,2.33
2022-12-11T04:33:07.233Z,2.38
2022-12-11T04:35:34.919Z,2.56
2022-12-11T04:38:02.620Z,2.53
2022-12-11T04:40:30.376Z,2.68
2022-12-11T04:42:58.044Z,2.58
2022-12-11T04:45:25.724Z,2.49
2022-12-11T04:47:53.354Z,2.52
2022-12-11T04:50:22.500Z,2.46
2022-12-11T04:52:50.214Z,2.40
2022-12-11T04:55:18.100Z,2.47
2022-12-11T04:57:45.832Z,2.49
2022-12-11T05:00:14.517Z,2.49
2022-12-11T05:02:43.682Z,2.68
2022-12-11T05:05:12.525Z,2.74
2022-12-11T05:07:42.011Z,2.75
2022-12-11T05:10:10.723Z,2.75
2022-12-11T05:12:38.502Z,2.78
2022-12-11T05:15:07.249Z,2.85
2022-12-11T05:17:35.512Z,2.86
2022-12-11T05:20:03.216Z,2.84
2022-12-11T05:22:31.925Z,2.93
2022-12-11T05:25:01.261Z,2.97
2022-12-11T05:27:28.959Z,3.03
2022-12-11T05:29:59.503Z,3.08
2022-12-11T05:32:27.607Z,3.01
2022-12-11T05:34:55.224Z,3.04
2022-12-11T05:37:23.255Z,2.99
2022-12-11T05:39:50.927Z,2.80
2022-12-11T05:42:24.007Z,2.78
2022-12-11T05:44:54.917Z,2.85
2022-12-11T05:47:22.633Z,2.80
2022-12-11T05:49:50.988Z,2.77
2022-12-11T05:52:18.862Z,2.71
2022-12-11T05:54:49.662Z,2.72
2022-12-11T05:57:17.546Z,2.74
2022-12-11T05:59:46.623Z,2.78
2022-12-11T06:02:14.492Z,2.82
2022-12-11T06:04:42.362Z,2.79
2022-12-11T06:07:10.130Z,2.88
2022-12-11T06:09:37.837Z,2.94
2022-12-11T06:12:05.868Z,2.94
2022-12-11T06:14:33.571Z,2.85
2022-12-11T06:17:02.607Z,2.92
2022-12-11T06:19:36.422Z,2.99
2022-12-11T06:22:04.909Z,2.94
2022-12-11T06:24:32.618Z,2.90
2022-12-11T06:27:00.309Z,2.69
2022-12-11T06:29:27.959Z,2.56
2022-12-11T06:31:55.753Z,2.49
2022-12-11T06:34:24.858Z,2.43
2022-12-11T06:36:52.583Z,2.33
2022-12-11T06:39:20.356Z,2.53
2022-12-11T06:41:48.291Z,2.74
2022-12-11T06:44:16.145Z,2.83
2022-12-11T06:46:43.840Z,2.89
2022-12-11T06:49:11.612Z,2.76
2022-12-11T06:51:40.830Z,2.56
2022-12-11T06:54:08.594Z,2.52
2022-12-11T06:56:36.491Z,2.48
2022-12-11T06:59:07.356Z,2.43
2022-12-11T07:01:35.456Z,2.40
2022-12-11T07:04:03.188Z,2.32
2022-12-11T07:06:31.185Z,2.28
2022-12-11T07:09:00.334Z,2.35
2022-12-11T07:11:29.228Z,2.43
2022-12-11T07:14:00.041Z,2.39
2022-12-11T07:16:28.588Z,2.47
2022-12-11T07:18:56.337Z,2.49
2022-12-11T07:21:24.071Z,2.29
2022-12-11T07:23:52.099Z,2.37
2022-12-11T07:26:23.102Z,2.17
2022-12-11T07:28:51.186Z,1.98
2022-12-11T07:31:22.969Z,1.88
2022-12-11T07:33:54.976Z,2.03
2022-12-11T07:36:22.827Z,1.93
2022-12-11T07:38:50.533Z,1.78
2022-12-11T07:41:18.946Z,1.84
2022-12-11T07:43:49.201Z,1.83
2022-12-11T07:46:19.070Z,1.89
2022-12-11T07:48:48.381Z,1.94
2022-12-11T07:51:18.075Z,1.97
2022-12-11T07:53:47.252Z,1.78
2022-12-11T07:56:15.613Z,1.65
2022-12-11T07:58:43.914Z,1.80
2022-12-11T08:01:14.512Z,2.01
2022-12-11T08:03:42.536Z,2.23
2022-12-11T08:06:10.485Z,2.29
2022-12-11T08:08:38.524Z,2.16
2022-12-11T08:11:08.524Z,2.04
2022-12-11T08:13:36.364Z,1.87
2022-12-11T08:16:05.769Z,1.84
2022-12-11T08:18:36.149Z,1.84
2022-12-11T08:21:06.694Z,1.98
2022-12-11T08:23:34.463Z,2.15
2022-12-11T08:26:03.880Z,2.39
2022-12-11T08:28:31.737Z,2.37
2022-12-11T08:31:00.552Z,2.51
2022-12-11T08:33:28.336Z,2.57
2022-12-11T08:35:57.456Z,2.71
2022-12-11T08:38:25.803Z,2.63
2022-12-11T08:40:53.529Z,2.60
2022-12-11T08:43:21.315Z,2.69
2022-12-11T08:45:49.350Z,2.88
2022-12-11T08:48:17.160Z,2.97
2022-12-11T08:50:44.891Z,3.07
2022-12-11T08:53:13.915Z,3.19
2022-12-11T08:55:42.097Z,3.08
2022-12-11T08:58:09.860Z,3.01
2022-12-11T09:00:37.790Z,2.97
2022-12-11T09:03:11.211Z,2.84
2022-12-11T09:05:40.824Z,2.82
2022-12-11T09:08:08.659Z,2.74
2022-12-11T09:10:37.861Z,2.70
2022-12-11T09:13:05.672Z,2.64
2022-12-11T09:15:33.410Z,2.64
2022-12-11T09:18:01.247Z,2.74
2022-12-11T09:20:29.127Z,2.79
2022-12-11T09:22:56.912Z,3.01
2022-12-11T09:25:25.230Z,3.25
2022-12-11T09:27:54.381Z,3.36
2022-12-11T09:30:22.169Z,3.43
2022-12-11T09:32:49.889Z,3.40
2022-12-11T09:35:17.796Z,3.55
2022-12-11T09:37:47.590Z,3.59
2022-12-11T09:40:15.638Z,3.66
2022-12-11T09:42:54.105Z,3.57
2022-12-11T09:45:23.272Z,3.59
2022-12-11T09:47:54.452Z,3.54
2022-12-11T09:50:25.213Z,3.62
2022-12-11T09:53:05.563Z,3.74
2022-12-11T09:55:44.218Z,3.77
2022-12-11T09:58:19.970Z,3.64
2022-12-11T10:00:51.160Z,3.69
2022-12-11T10:03:50.209Z,3.76
2022-12-11T10:06:25.142Z,3.74
2022-12-11T10:09:01.992Z,3.74
2022-12-11T10:11:56.319Z,3.75
2022-12-11T10:14:32.763Z,3.79
2022-12-11T10:17:08.977Z,3.73
2022-12-11T10:19:37.406Z,3.78
2022-12-11T10:22:05.256Z,3.79
2022-12-11T10:27:32.506Z,3.98
2022-12-11T10:30:13.907Z,4.10
2022-12-11T10:32:51.388Z,4.11
2022-12-11T10:35:30.268Z,4.20
2022-12-11T10:38:03.619Z,4.27
2022-12-11T10:40:33.609Z,4.26
2022-12-11T10:43:01.364Z,4.22
2022-12-11T10:45:29.215Z,4.18
2022-12-11T10:48:06.119Z,4.11
2022-12-11T10:50:34.276Z,4.00
2022-12-11T10:53:02.701Z,3.94
2022-12-11T10:55:36.044Z,3.94
2022-12-11T10:58:06.675Z,3.90
2022-12-11T11:00:37.567Z,3.87
2022-12-11T11:03:19.652Z,4.04
2022-12-11T11:05:49.554Z,4.00
2022-12-11T11:08:20.370Z,4.01
2022-12-11T11:10:53.169Z,4.06
2022-12-11T11:13:24.093Z,4.07
2022-12-11T11:16:00.228Z,3.96
2022-12-11T11:18:31.998Z,3.91
2022-12-11T11:21:00.622Z,4.02
2022-12-11T11:23:29.391Z,4.05
2022-12-11T11:26:00.332Z,4.05
2022-12-11T11:28:30.834Z,4.04
2022-12-11T11:31:03.747Z,3.97
2022-12-11T11:33:35.523Z,4.04
2022-12-11T11:36:06.545Z,4.03
2022-12-11T11:38:38.508Z,3.88
2022-12-11T11:41:16.662Z,3.88
2022-12-11T11:43:50.649Z,3.95
2022-12-11T11:46:24.677Z,4.06
2022-12-11T11:49:07.203Z,4.14
2022-12-11T11:51:38.681Z,4.13
2022-12-11T11:54:16.408Z,4.10
2022-12-11T11:56:45.508Z,4.09
2022-12-11T11:59:20.370Z,4.08
2022-12-11T12:01:48.579Z,4.07
2022-12-11T12:04:17.714Z,4.04
2022-12-11T12:07:01.433Z,4.08
2022-12-11T12:09:43.563Z,4.03
2022-12-11T12:12:25.472Z,4.02
2022-12-11T12:15:03.182Z,3.90
2022-12-11T12:17:38.789Z,3.96
2022-12-11T12:20:18.545Z,4.03
2022-12-11T12:22:59.080Z,4.09
2022-12-11T12:25:34.242Z,4.15
2022-12-11T12:28:14.328Z,4.19
2022-12-11T12:30:55.349Z,3.99
2022-12-11T12:33:32.755Z,3.99
2022-12-11T12:36:12.176Z,4.08
2022-12-11T12:38:53.781Z,4.12
2022-12-11T12:41:25.850Z,4.19
2022-12-11T12:44:11.529Z,4.27
2022-12-11T12:46:50.148Z,4.35
2022-12-11T12:49:26.274Z,4.33
2022-12-11T12:51:56.649Z,4.30
2022-12-11T12:54:28.043Z,4.25
2022-12-11T12:56:56.916Z,4.22
2022-12-11T12:59:26.143Z,4.14
2022-12-11T13:01:57.972Z,4.14
2022-12-11T13:04:57.881Z,4.13
2022-12-11T13:07:31.058Z,4.21
2022-12-11T13:10:23.709Z,4.10
2022-12-11T13:12:52.399Z,4.04
2022-12-11T13:15:36.772Z,4.08
2022-12-11T13:18:26.073Z,4.13
2022-12-11T13:20:53.770Z,4.21
2022-12-11T13:23:29.087Z,4.30
2022-12-11T13:25:59.039Z,4.34
2022-12-11T13:28:31.324Z,4.30
2022-12-11T13:31:02.068Z,4.32
2022-12-11T13:33:31.005Z,4.42
2022-12-11T13:36:26.766Z,4.48
2022-12-11T13:39:01.026Z,4.48
2022-12-11T13:41:29.575Z,4.48
2022-12-11T13:43:58.921Z,4.55
2022-12-11T13:46:30.361Z,4.57
2022-12-11T13:49:01.236Z,4.53
2022-12-11T13:51:31.123Z,4.44
2022-12-11T13:54:17.222Z,4.26
2022-12-11T13:56:59.543Z,4.17
2022-12-11T13:59:30.891Z,3.99
2022-12-11T14:02:02.270Z,3.97
2022-12-11T14:04:31.337Z,4.02
2022-12-11T14:07:00.022Z,4.03
2022-12-11T14:09:29.720Z,4.10
2022-12-11T14:11:59.285Z,4.13
2022-12-11T14:14:39.764Z,4.04
2022-12-11T14:17:07.871Z,3.91
2022-12-11T14:19:35.619Z,3.79
2022-12-11T14:22:05.601Z,3.83
2022-12-11T14:24:34.758Z,3.90
2022-12-11T14:27:05.510Z,3.97
2022-12-11T14:29:34.798Z,4.18
2022-12-11T14:32:06.200Z,4.25
2022-12-11T14:34:38.198Z,4.31
2022-12-11T14:37:08.208Z,4.36
2022-12-11T14:39:42.252Z,4.49
2022-12-11T14:42:15.433Z,4.51
2022-12-11T14:44:50.837Z,4.46
2022-12-11T14:47:22.797Z,4.50
2022-12-11T14:49:56.527Z,4.49
2022-12-11T14:52:29.135Z,4.50
2022-12-11T14:55:05.284Z,4.55
2022-12-11T14:57:34.532Z,4.63
2022-12-11T15:00:03.206Z,4.60
2022-12-11T15:02:33.218Z,4.43
2022-12-11T15:05:06.830Z,4.31
2022-12-11T15:07:35.595Z,4.34
2022-12-11T15:10:05.678Z,4.38
2022-12-11T15:12:33.625Z,4.48
2022-12-11T15:15:05.563Z,4.49
2022-12-11T15:17:34.617Z,4.48
2022-12-11T15:20:07.369Z,4.42
2022-12-11T15:22:36.424Z,4.29
2022-12-11T15:25:06.248Z,4.12
2022-12-11T15:27:36.835Z,4.24
2022-12-11T15:30:26.954Z,4.27
2022-12-11T15:33:03.857Z,4.35
2022-12-11T15:35:41.551Z,4.44
2022-12-11T15:38:31.328Z,4.38
2022-12-11T15:41:00.574Z,4.23
2022-12-11T15:43:29.257Z,4.20
2022-12-11T15:45:57.530Z,4.12
2022-12-11T15:48:25.401Z,4.07
2022-12-11T15:50:53.156Z,4.09
2022-12-11T15:53:20.886Z,4.15
2022-12-11T15:55:48.616Z,4.26
2022-12-11T15:58:21.034Z,4.25
2022-12-11T16:00:48.708Z,4.13
2022-12-11T16:03:18.549Z,4.09
2022-12-11T16:05:46.786Z,4.02
2022-12-11T16:08:16.068Z,4.05
2022-12-11T16:10:44.287Z,4.06
2022-12-11T16:13:23.233Z,4.14
2022-12-11T16:15:53.668Z,4.16
2022-12-11T16:18:24.163Z,4.13
2022-12-11T16:20:52.840Z,4.01
2022-12-11T16:23:21.328Z,4.04
2022-12-11T16:25:49.402Z,4.09
2022-12-11T16:28:20.806Z,4.11
2022-12-11T16:30:50.376Z,4.18
2022-12-11T16:33:18.576Z,4.27
2022-12-11T16:35:46.359Z,4.22
2022-12-11T16:38:14.099Z,4.32
2022-12-11T16:40:42.484Z,4.23
2022-12-11T16:43:11.340Z,4.11
2022-12-11T16:45:39.128Z,4.05
2022-12-11T16:48:08.311Z,4.04
2022-12-11T16:50:36.480Z,4.05
2022-12-11T16:53:04.750Z,4.08
2022-12-11T16:55:32.468Z,4.15
2022-12-11T16:58:00.080Z,4.10
2022-12-11T17:00:27.949Z,3.95
2022-12-11T17:02:55.933Z,3.88
2022-12-11T17:05:25.030Z,3.87
2022-12-11T17:07:52.747Z,3.92
2022-12-11T17:10:20.552Z,3.99
2022-12-11T17:12:48.263Z,3.99
2022-12-11T17:15:15.986Z,3.95
2022-12-11T17:17:44.141Z,3.74
2022-12-11T17:20:12.362Z,3.69
2022-12-11T17:22:41.486Z,3.70
2022-12-11T17:25:09.987Z,3.60
2022-12-11T17:27:37.835Z,3.47
2022-12-11T17:30:06.211Z,3.36
2022-12-11T17:32:33.940Z,3.45
2022-12-11T17:35:01.705Z,3.49
2022-12-11T17:37:29.458Z,3.50
2022-12-11T17:39:58.463Z,3.47
2022-12-11T17:42:26.227Z,3.51
2022-12-11T17:44:54.236Z,3.52
2022-12-11T17:47:22.010Z,3.65
2022-12-11T17:49:49.731Z,3.84
2022-12-11T17:52:17.439Z,3.84
2022-12-11T17:54:45.247Z,3.86
2022-12-11T17:57:14.353Z,3.69
2022-12-11T17:59:42.140Z,3.67
2022-12-11T18:02:10.490Z,3.79
2022-12-11T18:04:39.102Z,3.95
2022-12-11T18:07:07.216Z,3.99
2022-12-11T18:09:34.993Z,4.12
2022-12-11T18:12:02.725Z,4.20
2022-12-11T18:14:31.926Z,4.07
2022-12-11T18:17:00.080Z,4.01
2022-12-11T18:19:27.962Z,4.16
2022-12-11T18:21:56.113Z,4.23
2022-12-11T18:24:25.809Z,4.21
2022-12-11T18:26:53.516Z,4.24
2022-12-11T18:29:21.360Z,4.33
2022-12-11T18:31:50.483Z,4.34
2022-12-11T18:34:18.258Z,4.38
2022-12-11T18:36:47.996Z,4.34
2022-12-11T18:39:16.349Z,4.32
2022-12-11T18:41:45.632Z,4.25
2022-12-11T18:44:22.464Z,4.12
2022-12-11T18:46:51.792Z,3.93
2022-12-11T18:49:28.746Z,3.88
2022-12-11T18:51:58.194Z,3.81
2022-12-11T18:54:25.891Z,3.79
2022-12-11T18:56:53.718Z,3.83
2022-12-11T18:59:21.510Z,3.87
2022-12-11T19:01:49.327Z,3.91
2022-12-11T19:04:18.864Z,3.92
2022-12-11T19:06:46.597Z,3.76
2022-12-11T19:09:14.356Z,3.77
2022-12-11T19:11:43.020Z,3.78
2022-12-11T19:14:11.714Z,3.77
2022-12-11T19:16:41.581Z,3.70
2022-12-11T19:19:13.220Z,3.62
2022-12-11T19:21:42.488Z,3.55
2022-12-11T19:24:15.004Z,3.51
2022-12-11T19:26:43.023Z,3.44
2022-12-11T19:29:11.354Z,3.38
2022-12-11T19:31:39.397Z,3.52
2022-12-11T19:34:07.309Z,3.58
2022-12-11T19:36:36.694Z,3.76
2022-12-11T19:39:11.336Z,3.88
2022-12-11T19:41:41.035Z,4.01
2022-12-11T19:44:09.002Z,4.03
2022-12-11T19:46:37.162Z,4.07
2022-12-11T19:49:06.077Z,4.18
2022-12-11T19:51:38.270Z,4.25
2022-12-11T19:54:08.622Z,4.30
2022-12-11T19:56:36.876Z,4.31
2022-12-11T19:59:08.426Z,4.42
2022-12-11T20:01:37.989Z,4.41
2022-12-11T20:04:08.255Z,4.31
2022-12-11T20:06:37.704Z,4.19
2022-12-11T20:09:11.070Z,4.05
2022-12-11T20:11:40.119Z,4.07
2022-12-11T20:14:08.163Z,4.18
2022-12-11T20:19:23.788Z,4.04
2022-12-11T20:21:51.477Z,3.86
2022-12-11T20:24:20.809Z,3.73
2022-12-11T20:26:50.396Z,3.68
2022-12-11T20:29:18.126Z,3.69
2022-12-11T20:31:46.722Z,3.74
2022-12-11T20:34:14.502Z,3.74
2022-12-11T20:36:42.483Z,3.71
2022-12-11T20:39:10.303Z,3.70
2022-12-11T20:41:39.534Z,3.65
2022-12-11T20:44:07.562Z,3.64
2022-12-11T20:46:35.280Z,3.62
2022-12-11T20:49:03.221Z,3.57
2022-12-11T20:51:32.623Z,3.66
2022-12-11T20:54:01.237Z,3.71
2022-12-11T20:56:31.719Z,3.69
2022-12-11T20:59:01.441Z,3.64
2022-12-11T21:01:31.362Z,3.53
2022-12-11T21:04:00.381Z,3.46
2022-12-11T21:06:31.627Z,3.50
2022-12-11T21:09:00.192Z,3.47
2022-12-11T21:11:28.460Z,3.47
2022-12-11T21:13:56.434Z,3.58
2022-12-11T21:16:25.925Z,3.58
2022-12-11T21:18:53.767Z,3.49
2022-12-11T21:21:21.574Z,3.42
2022-12-11T21:23:49.341Z,3.25
2022-12-11T21:26:17.113Z,3.39
2022-12-11T21:28:44.893Z,3.60
2022-12-11T21:31:15.773Z,3.59
2022-12-11T21:33:45.351Z,3.70
2022-12-11T21:36:14.698Z,3.72
2022-12-11T21:38:44.386Z,3.75
2022-12-11T21:41:15.634Z,3.82
2022-12-11T21:44:14.543Z,3.78
2022-12-11T21:46:31.841Z,3.62
2022-12-11T21:49:00.885Z,3.58
2022-12-11T21:51:35.949Z,3.53
2022-12-11T21:54:05.451Z,3.45
2022-12-11T21:56:35.062Z,3.40
2022-12-11T21:59:03.163Z,3.38
2022-12-11T22:01:33.567Z,3.37
2022-12-11T22:04:03.365Z,3.31
2022-12-11T22:06:31.053Z,3.42
2022-12-11T22:08:58.796Z,3.43
2022-12-11T22:11:30.712Z,3.48
2022-12-11T22:13:59.055Z,3.44
2022-12-11T22:16:27.069Z,3.53
2022-12-11T22:18:54.842Z,3.55
2022-12-11T22:21:24.091Z,3.51
2022-12-11T22:23:52.060Z,3.48
2022-12-11T22:26:23.017Z,3.43
2022-12-11T22:28:51.327Z,3.35
2022-12-11T22:31:21.422Z,3.39
2022-12-11T22:33:50.532Z,3.27
2022-12-11T22:36:18.955Z,3.25
2022-12-11T22:38:48.106Z,3.22
2022-12-11T22:41:22.348Z,3.14
2022-12-11T22:43:50.516Z,3.27
2022-12-11T22:46:19.496Z,3.35
2022-12-11T22:48:47.300Z,3.42
2022-12-11T22:51:15.138Z,3.28
2022-12-11T22:53:42.980Z,3.27
2022-12-11T22:56:13.727Z,3.18
2022-12-11T22:58:41.907Z,3.13
2022-12-11T23:01:12.055Z,3.11
2022-12-11T23:03:39.868Z,3.09
2022-12-11T23:06:08.949Z,3.07
2022-12-11T23:08:36.867Z,3.04
2022-12-11T23:11:12.663Z,3.21
2022-12-11T23:13:40.522Z,3.30
2022-12-11T23:16:08.281Z,3.39
2022-12-11T23:18:36.490Z,3.44
2022-12-11T23:21:04.472Z,3.57
2022-12-11T23:23:32.187Z,3.62
2022-12-11T23:26:00.101Z,3.60
2022-12-11T23:28:29.190Z,3.66
2022-12-11T23:30:57.045Z,3.70
2022-12-11T23:33:24.773Z,3.71
2022-12-11T23:35:52.498Z,3.72
2022-12-11T23:38:20.290Z,3.79
2022-12-11T23:40:48.149Z,3.85
2022-12-11T23:43:16.227Z,3.84
2022-12-11T23:45:46.312Z,3.85
2022-12-11T23:48:14.616Z,3.88
2022-12-11T23:50:43.200Z,3.83
2022-12-11T23:53:12.133Z,3.69
2022-12-11T23:55:40.000Z,3.75
2022-12-11T23:58:08.188Z,3.79
